Tiempo atmosférico en la estación meteorológica de Briviesca, Burgos (730 m.)

Fecha
DESCASC
Temp. máxima en grados centígrados (hora)
DESCASC
Temp. mínima en grados centígrados (hora)
DESCASC
Temp. media en grados centígrados
DESCASC
Racha de viento máxima en m/sg (hora)
DESCASC
Velocidad máxima media en intervalos de 10 minutos(hora)
DESCASC
Precipitaciones diarias en mm
DESCASC
Precipitaciones de 00:00 a 06:00 en mm
DESCASC
Precipitaciones de 06:00 a 12:00 en mm
DESCASC
Precipitaciones de 12:00 a 18:00 en mm
DESCASC
Precipitaciones de 18:00 a 24:00 en mm
DESCASC
17-09-2017 19.3 (18:10) 3.2 (08:30) 11.2 9.44 (16:00) 5.56 (16:00) 0 0 0 0 0
16-09-2017 15.1 (16:50) 4.6 (08:30) 9.9 7.5 (15:20) 5 (15:20) 0.2 0 0 0.2 0
15-09-2017 15.4 (14:40) 4.7 (08:10) 10 10.56 (16:10) 7.5 (16:10) 0.2 0 0 0.2 0
14-09-2017 15.5 (00:00) 10.1 (00:00) 12.8 8.61 (15:50) 6.11 (18:10) 0 0 0 0 0
13-09-2017 28.8 (17:30) 9.1 (00:00) 18.9 10.56 (15:20) 6.67 (16:00) 0 0 0 0 0
12-09-2017 25.1 (17:20) 10.6 (00:00) 17.9 10 (18:50) 6.39 (19:00) 0 0 0 0 0
11-09-2017 22.2 (15:30) 12.6 (00:00) 17.4 8.61 (09:10) 5 (10:20) 0 0 0 0 0
10-09-2017 22.4 (16:50) 10.4 (00:00) 16.4 10.56 (15:20) 5.56 (12:00) 0 0 0 0 0
09-09-2017 18.1 (14:50) 11.4 (00:00) 14.8 12.78 (17:10) 8.61 (16:20) 0.6 0 0.6 0 0
08-09-2017 28.3 (17:20) 8 (00:00) 18.1 8.89 (20:30) 5 (20:50) 0 0 0 0 0
07-09-2017 22.9 (17:10) 7.5 (00:00) 15.2 7.22 (10:30) 4.72 (19:30) 0 0 0 0 0
06-09-2017 20.2 (16:50) 10.2 (00:00) 15.2 9.17 (18:30) 5.56 (15:00) 0 0 0 0 0
05-09-2017 29.4 (16:10) 10.6 (00:00) 20 10 (18:30) 6.67 (18:30) 0 0 0 0 0
04-09-2017 25.5 (17:30) 13.2 (00:00) 19.3 9.17 (18:40) 6.11 (18:40) 0 0 0 0 0
03-09-2017 27.2 (16:40) 11.3 (00:00) 19.3 8.61 (19:10) 5.56 (21:10) 0 0 0 0 0
02-09-2017 22.6 (17:50) 7.6 (00:00) 15.1 6.39 (17:20) 3.61 (16:00) 0 0 0 0 0
01-09-2017 20 (16:20) 8 (00:00) 14 9.72 (17:40) 6.11 (17:30) 0.2 0 0 0.2 0
31-08-2017 20.4 (16:50) 11.4 (00:00) 15.9 7.78 (19:40) 5.28 (20:30) 0.6 0.6 0 0 0
30-08-2017 26.7 (16:40) 13.1 (00:00) 19.9 10.83 (15:10) 6.39 (14:50) 4.4 0 0 0 4.4
29-08-2017 24.5 (16:20) 13.8 (00:00) 19.2 7.78 (17:40) 5.28 (17:40) 1.6 0 0 0 1.6
28-08-2017 19 (11:30) 15.5 (00:00) 17.3 10 (06:10) 5.28 (11:50) 19.4 1.2 1 10.6 6.6
27-08-2017 24.1 (01:00) 17.2 (00:00) 20.7 11.11 (21:30) 6.67 (19:50) 6.6 0 0.4 5.4 0.8
26-08-2017 31.2 (17:20) 12.7 (00:00) 22 12.22 (14:40) 8.61 (14:40) 0 0 0 0 0
25-08-2017 32.7 (17:00) 17.3 (00:00) 25 14.72 (16:50) 8.33 (14:20) 0 0 0 0 0
24-08-2017 32.2 (17:00) 13.4 (00:00) 22.8 9.44 (15:00) 6.39 (19:50) 0 0 0 0 0
23-08-2017 30 (17:20) 12.3 (00:00) 21.2 9.72 (20:30) 6.11 (20:30) 0 0 0 0 0
22-08-2017 34 (15:10) 15.1 (00:00) 24.6 11.11 (18:00) 8.33 (18:00) 0 0 0 0 0

Gráficas

Temp. máximas Temp. mínimas Temp. medias Precipitaciones Rachas de viento máximas Velocidades máximas media en intervalos de 10 minutos

Datos horarios

Fecha y hora oficial Temperatura (ºC) Velocidad del viento (km/h) Dirección del viento Racha (km/h) Dirección de racha Precipitación (mm) Presión (hPa) Tendencia (hPa) Humedad (%)
2017-09-20 23:00:00 13.9 0 Calma 12 Oeste 0 -- -- 54
2017-09-20 22:00:00 17.4 6 Oeste 23 Sur 0 -- -- 42
2017-09-20 21:00:00 19.5 12 Sudoeste 19 Sudoeste 0 -- -- 36
2017-09-20 20:00:00 22.2 8 Sudoeste 17 Sur 0 -- -- 32
2017-09-20 19:00:00 26 5 Nordeste 13 Norte 0 -- -- 25
2017-09-20 18:00:00 26.2 6 Nordeste 19 Norte 0 -- -- 24
2017-09-20 17:00:00 27.1 7 Noroeste 21 Norte 0 -- -- 24
2017-09-20 16:00:00 26.3 6 Noroeste 17 Este 0 -- -- 26
2017-09-20 15:00:00 24 6 Sudeste 17 Sudeste 0 -- -- 32
2017-09-20 14:00:00 21.9 7 Sudeste 13 Sudeste 0 -- -- 37
2017-09-20 13:00:00 19.2 4 Este 10 Sudeste 0 -- -- 44
2017-09-20 12:00:00 16 4 Sudeste 9 Este 0 -- -- 57
2017-09-20 11:00:00 12.6 2 Nordeste 6 Este 0 -- -- 70
2017-09-20 10:00:00 9.6 2 Oeste 8 Oeste 0 -- -- 78
2017-09-20 09:00:00 5.6 2 Oeste 11 Oeste 0 -- -- 86
2017-09-20 08:00:00 3.5 4 Noroeste 10 Oeste 0 -- -- 90
2017-09-20 07:00:00 3.8 3 Oeste 10 Oeste 0 -- -- 89
2017-09-20 06:00:00 4.6 6 Noroeste 13 Oeste 0 -- -- 87
2017-09-20 05:00:00 5 4 Noroeste 9 Noroeste 0 -- -- 89
2017-09-20 04:00:00 5.6 5 Noroeste 10 Noroeste 0 -- -- 86
2017-09-20 03:00:00 6.7 5 Noroeste 8 Sudoeste 0 -- -- 85
2017-09-20 02:00:00 7.6 4 Oeste 9 Noroeste 0 -- -- 86
2017-09-20 01:00:00 7.8 3 Oeste 7 Noroeste 0 -- -- 85
2017-09-20 00:00:00 9.3 0 Calma 12 Sudoeste 0 -- -- 77
2017-09-19 23:00:00 10.3 3 Oeste 17 Sudoeste 0 -- -- 71
2017-09-19 22:00:00 11.9 14 Sur 23 Sur 0 -- -- 65
2017-09-19 21:00:00 13.7 14 Sur 22 Sur 0 -- -- 57
2017-09-19 20:00:00 16.2 13 Sur 23 Sur 0 -- -- 50
2017-09-19 19:00:00 18.4 10 Sur 19 Sur 0 -- -- 46
2017-09-19 18:00:00 19.2 9 Sudeste 28 Sudeste 0 -- -- 44
2017-09-19 17:00:00 19.4 5 Sudoeste 17 Este 0 -- -- 43
2017-09-19 16:00:00 19.1 8 Sudeste 15 Este 0 -- -- 43
2017-09-19 15:00:00 18.1 13 Sudeste 24 Sudeste 0 -- -- 46
2017-09-19 14:00:00 17.1 8 Este 20 Sudeste 0 -- -- 50
2017-09-19 13:00:00 15.7 7 Sur 15 Sudeste 0 -- -- 57
2017-09-19 12:00:00 14.7 8 Sudeste 15 Este 0 -- -- 66
2017-09-19 11:00:00 13.4 0 Calma 10 Sudeste 0 -- -- 77
2017-09-19 10:00:00 10.7 0 Calma 7 Oeste 0 -- -- 89
2017-09-19 09:00:00 7.5 5 Noroeste 9 Oeste 0 -- -- 100
2017-09-19 08:00:00 6.5 0 Calma 11 Noroeste 0 -- -- 99
2017-09-19 07:00:00 6.1 3 Noroeste 7 Noroeste 0 -- -- 97
2017-09-19 06:00:00 7.8 3 Noroeste 11 Oeste 0 -- -- 97
2017-09-19 05:00:00 8.7 2 Norte 6 Noroeste 0 -- -- 96
2017-09-19 04:00:00 9.1 0 Calma 6 Norte 0 -- -- 95
2017-09-19 03:00:00 10.4 0 Calma 8 Sudeste 0 -- -- 91
2017-09-19 02:00:00 12.4 8 Este 13 Este 0 -- -- 86
2017-09-19 01:00:00 12.9 4 Este 8 Este 0 -- -- 86
2017-09-19 00:00:00 13.5 3 Este 14 Nordeste 0 -- -- 83
2017-09-18 23:00:00 13.4 5 Nordeste 14 Nordeste 0.2 -- -- 80
2017-09-18 22:00:00 13.8 5 Nordeste 12 Nordeste 0 -- -- 80
2017-09-18 21:00:00 14.5 5 Este 15 Sudeste 0 -- -- 82
2017-09-18 20:00:00 15 10 Este 24 Este 0 -- -- 82
2017-09-18 19:00:00 16.1 14 Este 24 Sudeste 0 -- -- 76
2017-09-18 18:00:00 18.8 11 Sudeste 21 Sudeste 0 -- -- 56
2017-09-18 17:00:00 18.8 6 Este 14 Este 0 -- -- 55
2017-09-18 16:00:00 17.7 5 Este 17 Este 0 -- -- 60
2017-09-18 15:00:00 18 8 Nordeste 20 Este 0 -- -- 59
2017-09-18 14:00:00 15.9 12 Nordeste 23 Norte 0 -- -- 68
2017-09-18 13:00:00 15.1 15 Noroeste 27 Norte 0 -- -- 71
2017-09-18 12:00:00 14 12 Norte 21 Norte 0 -- -- 74
2017-09-18 11:00:00 13.2 10 Nordeste 19 Nordeste 0 -- -- 76
2017-09-18 10:00:00 11.1 8 Noroeste 18 Noroeste 0 -- -- 84
2017-09-18 09:00:00 10 7 Noroeste 12 Noroeste 0 -- -- 87
2017-09-18 08:00:00 9.8 2 Noroeste 6 Nordeste 0 -- -- 96
2017-09-18 07:00:00 9.9 5 Nordeste 8 Norte 0 -- -- 98
2017-09-18 06:00:00 10 3 Noroeste 10 Oeste 1.2 -- -- 95
2017-09-18 05:00:00 10.1 0 Calma 7 Oeste 0.4 -- -- 93
2017-09-18 04:00:00 10.1 4 Noroeste 11 Oeste 0.6 -- -- 92
2017-09-18 03:00:00 10.3 3 Noroeste 10 Sudoeste 0 -- -- 86
2017-09-18 02:00:00 10 6 Sudoeste 11 Sudoeste 0 -- -- 87
2017-09-18 01:00:00 9.4 4 Noroeste 11 Noroeste 0 -- -- 83
2017-09-18 00:00:00 10.2 5 Noroeste 14 Sudoeste 0 -- -- 80
2017-09-17 23:00:00 10.6 11 Sudoeste 15 Sudoeste 0 -- -- 75
2017-09-17 22:00:00 11.8 7 Sur 22 Sur 0 -- -- 69
2017-09-17 21:00:00 14.1 10 Sudeste 16 Sur 0 -- -- 57
2017-09-17 20:00:00 16.8 6 Noroeste 18 Norte 0 -- -- 39
2017-09-17 19:00:00 18.1 9 Norte 23 Norte 0 -- -- 35
2017-09-17 18:00:00 19 18 Norte 27 Noroeste 0 -- -- 32
2017-09-17 17:00:00 18.8 12 Nordeste 30 Norte 0 -- -- 34
2017-09-17 16:00:00 19 20 Noroeste 34 Noroeste 0 -- -- 35
2017-09-17 15:00:00 18.2 16 Norte 30 Norte 0 -- -- 38
2017-09-17 14:00:00 17.7 13 Noroeste 26 Norte 0 -- -- 39
2017-09-17 13:00:00 15.9 10 Norte 24 Norte 0 -- -- 45
2017-09-17 12:00:00 14.4 9 Norte 21 Norte 0 -- -- 52
2017-09-17 11:00:00 12.7 9 Oeste 16 Noroeste 0 -- -- 63
2017-09-17 10:00:00 8.8 2 Noroeste 10 Noroeste 0 -- -- 78
2017-09-17 09:00:00 4.8 5 Noroeste 12 Noroeste 0 -- -- 93
2017-09-17 08:00:00 3.4 2 Oeste 10 Noroeste 0 -- -- 94
2017-09-17 07:00:00 3.8 6 Noroeste 11 Oeste 0 -- -- 94
2017-09-17 06:00:00 4.6 5 Oeste 10 Oeste 0 -- -- 93
2017-09-17 05:00:00 5 5 Oeste 9 Noroeste 0 -- -- 91
2017-09-17 04:00:00 5.3 3 Oeste 11 Oeste 0 -- -- 92
2017-09-17 03:00:00 5.4 4 Oeste 12 Noroeste 0 -- -- 91
2017-09-17 02:00:00 6.1 4 Oeste 11 Oeste 0 -- -- 89
2017-09-17 01:00:00 6.4 5 Noroeste 9 Noroeste 0 -- -- 88
2017-09-17 00:00:00 6.8 5 Noroeste 7 Noroeste 0 -- -- 82
2017-09-16 23:00:00 9.2 0 Calma 14 Este 0 -- -- 73
2017-09-16 22:00:00 10.4 5 Sur 13 Sudeste 0 -- -- 69
2017-09-16 21:00:00 11.7 8 Sudeste 15 Sur 0 -- -- 67
2017-09-16 20:00:00 12.9 7 Este 22 Sudeste 0 -- -- 58
2017-09-16 19:00:00 13.9 14 Sudeste 22 Sudeste 0 -- -- 53
2017-09-16 18:00:00 14.7 11 Este 18 Sudeste 0 -- -- 52
2017-09-16 17:00:00 14.6 8 Sudeste 17 Este 0 -- -- 54
2017-09-16 16:00:00 13.2 8 Este 27 Este 0 -- -- 63
2017-09-16 15:00:00 13.4 3 Oeste 23 Este 0.2 -- -- 63
2017-09-16 14:00:00 13.7 6 Este 20 Este 0 -- -- 53
2017-09-16 13:00:00 13.3 13 Este 23 Nordeste 0 -- -- 53
2017-09-16 12:00:00 12.5 6 Noroeste 23 Este 0 -- -- 59
2017-09-16 11:00:00 11.2 9 Este 17 Este 0 -- -- 63
2017-09-16 10:00:00 9.2 5 Noroeste 9 Oeste 0 -- -- 77
2017-09-16 09:00:00 5.5 4 Oeste 13 Oeste 0 -- -- 90
2017-09-16 08:00:00 5 5 Oeste 10 Oeste 0 -- -- 90
2017-09-16 07:00:00 5 0 Calma 9 Sudoeste 0 -- -- 89
2017-09-16 06:00:00 5.9 3 Oeste 9 Oeste 0 -- -- 89
2017-09-16 05:00:00 6 2 Noroeste 5 Noroeste 0 -- -- 90
2017-09-16 04:00:00 5.5 2 Noroeste 3 Noroeste 0 -- -- 87
2017-09-16 03:00:00 7.2 0 Calma 6 Nordeste 0 -- -- 86
2017-09-16 02:00:00 6.5 0 Calma 5 Noroeste 0 -- -- 83
2017-09-16 01:00:00 8.9 2 Noroeste 6 Oeste 0 -- -- 80
2017-09-16 00:00:00 8.9 0 Calma 6 Oeste 0 -- -- 79
2017-09-15 23:00:00 8.1 2 Norte 7 Este 0 -- -- 81
2017-09-15 22:00:00 7.8 0 Calma 12 Sudeste 0 -- -- 73
2017-09-15 21:00:00 10.2 9 Este 19 Este 0 -- -- 67
2017-09-15 20:00:00 11.1 11 Este 27 Este 0 -- -- 66
2017-09-15 19:00:00 12.8 15 Este 26 Sudeste 0 -- -- 59
2017-09-15 18:00:00 13.1 18 Este 31 Este 0 -- -- 61
2017-09-15 17:00:00 12.6 18 Este 38 Sudeste 0.2 -- -- 67
2017-09-15 16:00:00 14.4 22 Este 32 Este 0 -- -- 58
2017-09-15 15:00:00 14.9 19 Este 30 Sudeste 0 -- -- 55
2017-09-15 14:00:00 14.9 13 Este 25 Nordeste 0 -- -- 55
2017-09-15 13:00:00 13.5 14 Nordeste 26 Sudeste 0 -- -- 60
2017-09-15 12:00:00 14.1 15 Sudeste 23 Este 0 -- -- 58
2017-09-15 11:00:00 12.1 9 Este 15 Este 0 -- -- 69
2017-09-15 10:00:00 10.2 0 Calma 6 Noroeste 0 -- -- 77
2017-09-15 09:00:00 7 0 Calma 4 Oeste 0 -- -- 97
2017-09-15 08:00:00 4.9 0 Calma 4 Noroeste 0 -- -- 94
2017-09-15 07:00:00 6.6 3 Noroeste 8 Noroeste 0 -- -- 91
2017-09-15 06:00:00 8.1 4 Noroeste 7 Norte 0 -- -- 91
2017-09-15 05:00:00 8.6 2 Oeste 10 Sudoeste 0 -- -- 88
2017-09-15 04:00:00 8.6 0 Calma 11 Sudoeste 0 -- -- 85
2017-09-15 03:00:00 8.9 5 Sudoeste 12 Sudoeste 0 -- -- 82
2017-09-15 02:00:00 9.3 7 Sudoeste 12 Sur 0 -- -- 80
2017-09-15 01:00:00 10 3 Oeste 13 Sur 0 -- -- 77
2017-09-15 00:00:00 10.1 6 Sudeste 14 Sudeste 0 -- -- 78
2017-09-14 23:00:00 10.7 7 Sur 19 Sur 0 -- -- 76
2017-09-14 22:00:00 11.6 14 Sudeste 28 Sur 0 -- -- 74
2017-09-14 21:00:00 12.3 20 Sur 30 Sur 0 -- -- 72
2017-09-14 20:00:00 13.2 15 Sur 29 Sur 0 -- -- 71
2017-09-14 19:00:00 14.1 15 Sur 28 Sur 0 -- -- 66
2017-09-14 18:00:00 14.8 20 Sur 30 Sur 0 -- -- 63
2017-09-14 17:00:00 14.4 9 Sudeste 25 Sudeste 0 -- -- 63
2017-09-14 16:00:00 14.2 18 Sur 31 Sur 0 -- -- 68
2017-09-14 15:00:00 14.9 10 Sur 22 Sur 0 -- -- 63
2017-09-14 14:00:00 13.7 12 Sur 24 Sur 0 -- -- 74
2017-09-14 13:00:00 13.4 9 Sudeste 15 Sudeste 0 -- -- 76
2017-09-14 12:00:00 13.1 13 Este 23 Este 0 -- -- 81
2017-09-14 11:00:00 13.7 15 Este 23 Este 0 -- -- 81
2017-09-14 10:00:00 14.1 14 Este 26 Este 0 -- -- 86
2017-09-14 09:00:00 14.1 8 Noroeste 15 Noroeste 0 -- -- 92
2017-09-14 08:00:00 13.5 4 Oeste 12 Sudoeste 0 -- -- 91
2017-09-14 07:00:00 13.4 0 Calma 9 Oeste 0 -- -- 93
2017-09-14 06:00:00 12.9 2 Oeste 6 Oeste 0 -- -- 94
2017-09-14 05:00:00 11.6 3 Noroeste 6 Oeste 0 -- -- 97
2017-09-14 04:00:00 12 3 Noroeste 10 Oeste 0 -- -- 93
2017-09-14 03:00:00 13 3 Noroeste 13 Oeste 0 -- -- 94
2017-09-14 02:00:00 13.6 0 Calma 9 Oeste 0 -- -- 90
2017-09-14 01:00:00 14.4 2 Oeste 14 Oeste 0 -- -- 86
2017-09-14 00:00:00 15.5 5 Noroeste 13 Sudoeste 0 -- -- 83
2017-09-13 23:00:00 16.7 5 Sudoeste 19 Sudoeste 0 -- -- 78
2017-09-13 22:00:00 18.5 10 Sur 27 Sur 0 -- -- 72
2017-09-13 21:00:00 21.2 13 Sur 32 Sur 0 -- -- 58
2017-09-13 20:00:00 26.8 7 Norte 27 Norte 0 -- -- 29
2017-09-13 19:00:00 28.4 10 Norte 31 Norte 0 -- -- 30
2017-09-13 18:00:00 28.7 15 Norte 33 Noroeste 0 -- -- 29
2017-09-13 17:00:00 28.4 20 Norte 36 Noroeste 0 -- -- 27
2017-09-13 16:00:00 28.1 24 Noroeste 38 Norte 0 -- -- 32
2017-09-13 15:00:00 27.3 19 Noroeste 34 Norte 0 -- -- 37
2017-09-13 14:00:00 26 19 Norte 35 Norte 0 -- -- 39
2017-09-13 13:00:00 24.5 14 Noroeste 25 Norte 0 -- -- 43
2017-09-13 12:00:00 20.2 6 Este 12 Este 0 -- -- 62
2017-09-13 11:00:00 17.1 4 Nordeste 8 Nordeste 0 -- -- 73
2017-09-13 10:00:00 14.9 0 Calma 9 Noroeste 0 -- -- 83
2017-09-13 09:00:00 11 3 Oeste 12 Oeste 0 -- -- 93
2017-09-13 08:00:00 9.1 5 Noroeste 9 Noroeste 0 -- -- 96
2017-09-13 07:00:00 9.4 3 Oeste 9 Sudoeste 0 -- -- 95
2017-09-13 06:00:00 9.8 0 Calma 10 Oeste 0 -- -- 94
2017-09-13 05:00:00 10.4 5 Oeste 12 Oeste 0 -- -- 92
2017-09-13 04:00:00 10.7 2 Oeste 8 Oeste 0 -- -- 93
2017-09-13 03:00:00 11.6 3 Oeste 8 Oeste 0 -- -- 90
2017-09-13 02:00:00 12.3 4 Oeste 9 Oeste 0 -- -- 89
2017-09-13 01:00:00 12.9 4 Noroeste 12 Noroeste 0 -- -- 87
2017-09-13 00:00:00 13.7 5 Noroeste 8 Noroeste 0 -- -- 85
2017-09-12 23:00:00 14.8 2 Oeste 15 Sudoeste 0 -- -- 80
2017-09-12 22:00:00 16 10 Sudoeste 19 Sur 0 -- -- 76
2017-09-12 21:00:00 17.3 9 Sudoeste 22 Sur 0 -- -- 70
2017-09-12 20:00:00 19.8 16 Sur 32 Sudeste 0 -- -- 61
2017-09-12 19:00:00 22.6 23 Sudeste 36 Sudeste 0 -- -- 49
2017-09-12 18:00:00 24.1 18 Norte 28 Norte 0 -- -- 37
2017-09-12 17:00:00 24.6 14 Noroeste 27 Norte 0 -- -- 34
2017-09-12 16:00:00 24 15 Norte 31 Norte 0 -- -- 35
2017-09-12 15:00:00 22.4 10 Norte 31 Norte 0 -- -- 38
2017-09-12 14:00:00 20.9 9 Norte 27 Norte 0 -- -- 43
2017-09-12 13:00:00 19.5 10 Nordeste 22 Nordeste 0 -- -- 51
2017-09-12 12:00:00 17.3 7 Nordeste 17 Nordeste 0 -- -- 60
2017-09-12 11:00:00 16.7 8 Noroeste 15 Noroeste 0 -- -- 64
2017-09-12 10:00:00 14.2 7 Noroeste 13 Noroeste 0 -- -- 74
2017-09-12 09:00:00 11.5 4 Oeste 10 Sudoeste 0 -- -- 83
2017-09-12 08:00:00 10.6 3 Noroeste 7 Oeste 0 -- -- 86
2017-09-12 07:00:00 10.7 3 Noroeste 6 Noroeste 0 -- -- 86
2017-09-12 06:00:00 11.4 0 Calma 5 Noroeste 0 -- -- 83
2017-09-12 05:00:00 12.6 0 Calma 9 Nordeste 0 -- -- 80
2017-09-12 04:00:00 13.2 4 Nordeste 12 Norte 0 -- -- 77
2017-09-12 03:00:00 13.7 8 Este 18 Sudeste 0 -- -- 79
2017-09-12 02:00:00 14 9 Sudeste 21 Sudeste 0 -- -- 80
2017-09-12 01:00:00 14.4 2 Nordeste 9 Nordeste 0 -- -- 78
2017-09-12 00:00:00 14.5 7 Nordeste 11 Nordeste 0 -- -- 78
2017-09-11 23:00:00 14.9 5 Este 10 Este 0 -- -- 76
2017-09-11 22:00:00 15.3 8 Este 16 Nordeste 0 -- -- 74
2017-09-11 21:00:00 15.6 9 Sur 17 Sur 0 -- -- 74
2017-09-11 20:00:00 16.7 10 Sur 21 Sudeste 0 -- -- 71
2017-09-11 19:00:00 18.6 15 Sudeste 20 Sudeste 0 -- -- 64
2017-09-11 18:00:00 19.6 12 Sudeste 27 Sudeste 0 -- -- 61
2017-09-11 17:00:00 21.5 13 Este 28 Sudeste 0 -- -- 56
2017-09-11 16:00:00 22.1 14 Este 25 Sudeste 0 -- -- 54
2017-09-11 15:00:00 21.5 10 Sudeste 24 Sudeste 0 -- -- 57
2017-09-11 14:00:00 20.6 13 Sudeste 24 Sudeste 0 -- -- 61
2017-09-11 13:00:00 19.7 13 Este 21 Nordeste 0 -- -- 66
2017-09-11 12:00:00 17.9 10 Este 21 Este 0 -- -- 73
2017-09-11 11:00:00 17.8 11 Nordeste 26 Norte 0 -- -- 74
2017-09-11 10:00:00 16.6 12 Norte 31 Norte 0 -- -- 80
2017-09-11 09:00:00 15.4 13 Norte 26 Norte 0 -- -- 86
2017-09-11 08:00:00 13.8 12 Noroeste 21 Noroeste 0 -- -- 89
2017-09-11 07:00:00 13.2 7 Noroeste 19 Noroeste 0 -- -- 87
2017-09-11 06:00:00 14.1 13 Noroeste 17 Noroeste 0 -- -- 85
2017-09-11 05:00:00 14.7 14 Noroeste 21 Noroeste 0 -- -- 80
2017-09-11 04:00:00 14.6 15 Noroeste 23 Noroeste 0 -- -- 78
2017-09-11 03:00:00 13.1 0 Calma 4 Oeste 0 -- -- 84
2017-09-11 02:00:00 14.7 0 Calma 7 Noroeste 0 -- -- 79
2017-09-11 01:00:00 16.4 0 Calma 9 Oeste 0 -- -- 71
2017-09-11 00:00:00 16.8 4 Oeste 9 Noroeste 0 -- -- 73
2017-09-10 23:00:00 16.8 5 Noroeste 8 Noroeste 0 -- -- 69
2017-09-10 22:00:00 16.6 3 Oeste 10 Sur 0 -- -- 71
2017-09-10 21:00:00 17.7 4 Este 12 Este 0 -- -- 65
2017-09-10 20:00:00 18.4 7 Nordeste 19 Sudeste 0 -- -- 54
2017-09-10 19:00:00 19.9 15 Este 30 Sudeste 0 -- -- 44
2017-09-10 18:00:00 21.3 17 Norte 34 Norte 0 -- -- 32
2017-09-10 17:00:00 22.1 15 Norte 30 Nordeste 0 -- -- 31
2017-09-10 16:00:00 21.2 13 Norte 38 Este 0 -- -- 36
2017-09-10 15:00:00 19 6 Norte 32 Norte 0 -- -- 43
2017-09-10 14:00:00 17.7 13 Nordeste 36 Nordeste 0 -- -- 48
2017-09-10 13:00:00 17.5 18 Nordeste 32 Norte 0 -- -- 47
2017-09-10 12:00:00 15.6 20 Nordeste 36 Nordeste 0 -- -- 51
2017-09-10 11:00:00 14.4 19 Nordeste 37 Norte 0 -- -- 59
2017-09-10 10:00:00 12.4 13 Norte 22 Norte 0 -- -- 68
2017-09-10 09:00:00 11.2 8 Norte 19 Nordeste 0 -- -- 71
2017-09-10 08:00:00 10.6 6 Norte 21 Nordeste 0 -- -- 78
2017-09-10 07:00:00 10.5 8 Norte 19 Norte 0 -- -- 79
2017-09-10 06:00:00 10.9 13 Nordeste 27 Nordeste 0 -- -- 78
2017-09-10 05:00:00 11.1 10 Nordeste 22 Nordeste 0 -- -- 76
2017-09-10 04:00:00 11 10 Nordeste 23 Nordeste 0 -- -- 77
2017-09-10 03:00:00 11.2 15 Nordeste 25 Nordeste 0 -- -- 75
2017-09-10 02:00:00 10.6 8 Nordeste 16 Norte 0 -- -- 81
2017-09-10 01:00:00 10.5 8 Nordeste 30 Norte 0 -- -- 86
2017-09-10 00:00:00 11.7 16 Nordeste 29 Nordeste 0 -- -- 69
2017-09-09 23:00:00 11.8 17 Nordeste 34 Nordeste 0 -- -- 74
2017-09-09 22:00:00 11.6 14 Nordeste 28 Nordeste 0 -- -- 74
2017-09-09 21:00:00 12.5 18 Este 33 Nordeste 0 -- -- 66
2017-09-09 20:00:00 13.6 19 Este 36 Este 0 -- -- 61
2017-09-09 19:00:00 14.6 17 Este 38 Nordeste 0 -- -- 60
2017-09-09 18:00:00 16.5 18 Este 46 Este 0 -- -- 53
2017-09-09 17:00:00 15.3 28 Este 42 Sudeste 0 -- -- 58
2017-09-09 16:00:00 17.4 22 Este 36 Este 0 -- -- 52
2017-09-09 15:00:00 17.5 22 Este 40 Sudeste 0 -- -- 54
2017-09-09 14:00:00 17.5 21 Este 33 Este 0 -- -- 52
2017-09-09 13:00:00 16.2 15 Nordeste 25 Nordeste 0 -- -- 57
2017-09-09 12:00:00 14.4 8 Este 18 Este 0 -- -- 72
2017-09-09 11:00:00 12.2 2 Nordeste 18 Nordeste 0.4 -- -- 89
2017-09-09 10:00:00 13.4 11 Este 21 Este 0 -- -- 79
2017-09-09 09:00:00 13.1 14 Este 29 Este 0.2 -- -- 81
2017-09-09 08:00:00 14.3 12 Este 24 Este 0 -- -- 81
2017-09-09 07:00:00 13.7 3 Noroeste 11 Noroeste 0 -- -- 88
2017-09-09 06:00:00 13.5 6 Noroeste 12 Noroeste 0 -- -- 88
2017-09-09 05:00:00 12.9 6 Oeste 14 Noroeste 0 -- -- 89
2017-09-09 04:00:00 12.6 4 Oeste 11 Sudoeste 0 -- -- 90
2017-09-09 03:00:00 12.4 0 Calma 5 Este 0 -- -- 88
2017-09-09 02:00:00 13.9 8 Este 18 Sur 0 -- -- 85
2017-09-09 01:00:00 14.5 13 Sur 21 Sudoeste 0 -- -- 81
2017-09-09 00:00:00 15.1 4 Noroeste 17 Sudoeste 0 -- -- 74
2017-09-08 23:00:00 15.5 0 Calma 23 Sudoeste 0 -- -- 73
2017-09-08 22:00:00 16.9 12 Sudoeste 18 Sur 0 -- -- 68
2017-09-08 21:00:00 18.9 15 Sudoeste 32 Sur 0 -- -- 59
2017-09-08 20:00:00 23.6 14 Sur 27 Sudeste 0 -- -- 43
2017-09-08 19:00:00 27.4 11 Noroeste 21 Norte 0 -- -- 21
2017-09-08 18:00:00 27.9 16 Norte 30 Nordeste 0 -- -- 19
2017-09-08 17:00:00 28.2 18 Norte 28 Noroeste 0 -- -- 19
2017-09-08 16:00:00 26.5 8 Nordeste 25 Noroeste 0 -- -- 24
2017-09-08 15:00:00 24.4 5 Nordeste 15 Sudoeste 0 -- -- 36
2017-09-08 14:00:00 21.8 6 Sudeste 16 Oeste 0 -- -- 42
2017-09-08 13:00:00 18.3 3 Norte 12 Nordeste 0 -- -- 56
2017-09-08 12:00:00 14.8 0 Calma 12 Sudeste 0 -- -- 74
2017-09-08 11:00:00 11.7 4 Sudeste 10 Este 0 -- -- 91
2017-09-08 10:00:00 10.3 4 Nordeste 9 Este 0 -- -- 97
2017-09-08 09:00:00 9.7 0 Calma 4 Noroeste 0 -- -- 96
2017-09-08 08:00:00 8.9 3 Norte 6 Oeste 0 -- -- 95
2017-09-08 07:00:00 9.2 3 Oeste 6 Noroeste 0 -- -- 98
2017-09-08 06:00:00 8.6 3 Noroeste 5 Noroeste 0 -- -- 99
2017-09-08 05:00:00 8.1 4 Noroeste 6 Noroeste 0 -- -- 97
2017-09-08 04:00:00 8.8 4 Noroeste 7 Noroeste 0 -- -- 96
2017-09-08 03:00:00 9.3 6 Noroeste 8 Noroeste 0 -- -- 95
2017-09-08 02:00:00 10.3 3 Noroeste 10 Sudoeste 0 -- -- 91
2017-09-08 01:00:00 11.6 4 Sudoeste 12 Sudoeste 0 -- -- 89
2017-09-08 00:00:00 12.1 5 Sudoeste 20 Sudoeste 0 -- -- 86
2017-09-07 23:00:00 12.9 13 Sudoeste 22 Sudoeste 0 -- -- 83
2017-09-07 22:00:00 14.1 16 Sur 24 Sur 0 -- -- 78
2017-09-07 21:00:00 15.8 16 Sur 25 Sur 0 -- -- 71
2017-09-07 20:00:00 19.1 14 Sur 22 Sudoeste 0 -- -- 58
2017-09-07 19:00:00 21.5 12 Sur 23 Sudeste 0 -- -- 48
2017-09-07 18:00:00 22.5 11 Sudeste 18 Sur 0 -- -- 44
2017-09-07 17:00:00 22.7 6 Este 17 Sudeste 0 -- -- 41
2017-09-07 16:00:00 22.1 6 Este 16 Este 0 -- -- 42
2017-09-07 15:00:00 20.7 9 Este 17 Este 0 -- -- 44
2017-09-07 14:00:00 18.9 7 Sudeste 17 Sur 0 -- -- 52
2017-09-07 13:00:00 17.6 8 Sur 17 Sur 0 -- -- 56
2017-09-07 12:00:00 16.5 8 Sur 20 Sudeste 0 -- -- 62
2017-09-07 11:00:00 14.7 10 Sur 26 Sur 0 -- -- 70
2017-09-07 10:00:00 12.6 8 Sur 11 Sur 0 -- -- 82
2017-09-07 09:00:00 8.5 0 Calma 0 Calma 0 -- -- 97
2017-09-07 08:00:00 7.8 0 Calma 3 Norte 0 -- -- 92
2017-09-07 07:00:00 9.3 0 Calma 11 Sur 0 -- -- 90
2017-09-07 06:00:00 10 5 Sur 9 Sur 0 -- -- 91
2017-09-07 05:00:00 10 0 Calma 5 Sudeste 0 -- -- 93
2017-09-07 04:00:00 9.2 0 Calma 5 Norte 0 -- -- 95
2017-09-07 03:00:00 7.9 0 Calma 7 Noroeste 0 -- -- 92
2017-09-07 02:00:00 9 0 Calma 12 Sur 0 -- -- 89
2017-09-07 01:00:00 9.5 0 Calma 9 Sur 0 -- -- 89
2017-09-07 00:00:00 10.2 2 Noroeste 12 Sur 0 -- -- 88
2017-09-06 23:00:00 11 4 Sur 13 Sur 0 -- -- 86
2017-09-06 22:00:00 12 10 Sur 15 Sur 0 -- -- 85
2017-09-06 21:00:00 14.1 11 Sudeste 20 Sudeste 0 -- -- 77
2017-09-06 20:00:00 16.4 18 Sudeste 27 Sudeste 0 -- -- 71
2017-09-06 19:00:00 18.7 15 Sudeste 33 Sur 0 -- -- 64
2017-09-06 18:00:00 19.7 15 Sur 27 Sudeste 0 -- -- 64
2017-09-06 17:00:00 20.1 13 Sudeste 30 Sudeste 0 -- -- 63
2017-09-06 16:00:00 19.8 14 Sudeste 28 Sudeste 0 -- -- 65
2017-09-06 15:00:00 19.4 20 Sudeste 27 Sudeste 0 -- -- 69
2017-09-06 14:00:00 18.8 14 Sudeste 21 Este 0 -- -- 74
2017-09-06 13:00:00 17.4 9 Sudeste 17 Sudeste 0 -- -- 84
2017-09-06 12:00:00 17.6 12 Sudeste 18 Sudeste 0 -- -- 81
2017-09-06 11:00:00 17.7 7 Sudeste 14 Sudeste 0 -- -- 80
2017-09-06 10:00:00 15.4 4 Sudoeste 7 Sur 0 -- -- 92
2017-09-06 09:00:00 15.2 4 Oeste 15 Sudoeste 0 -- -- 90
2017-09-06 08:00:00 14.9 5 Sudoeste 10 Oeste 0 -- -- 90
2017-09-06 07:00:00 14.7 3 Sudoeste 13 Sudoeste 0 -- -- 90
2017-09-06 06:00:00 14.2 3 Sudoeste 11 Sudoeste 0 -- -- 92
2017-09-06 05:00:00 14 8 Sudoeste 18 Sudoeste 0 -- -- 91
2017-09-06 04:00:00 14.2 10 Sudoeste 15 Sudoeste 0 -- -- 91
2017-09-06 03:00:00 14.6 8 Sudoeste 12 Sudoeste 0 -- -- 91
2017-09-06 02:00:00 14.5 9 Sur 16 Sudoeste 0 -- -- 89
2017-09-06 01:00:00 15 8 Sur 18 Sur 0 -- -- 86
2017-09-06 00:00:00 15.6 10 Sur 15 Sur 0 -- -- 85
2017-09-05 23:00:00 16.9 10 Sur 19 Sur 0 -- -- 82
2017-09-05 22:00:00 17 13 Sur 21 Sur 0 -- -- 83
2017-09-05 21:00:00 18.7 10 Sudeste 20 Sudeste 0 -- -- 78
2017-09-05 20:00:00 21.1 12 Sudeste 26 Sudeste 0 -- -- 71
2017-09-05 19:00:00 23.3 18 Este 36 Sudeste 0 -- -- 63
2017-09-05 18:00:00 26.5 21 Sudeste 32 Sudeste 0 -- -- 53
2017-09-05 17:00:00 26.9 21 Sudeste 35 Sudeste 0 -- -- 51
2017-09-05 16:00:00 29 10 Sudeste 22 Sudeste 0 -- -- 39
2017-09-05 15:00:00 28.2 9 Sur 20 Sudeste 0 -- -- 44
2017-09-05 14:00:00 26.3 9 Sudeste 17 Sudeste 0 -- -- 50
2017-09-05 13:00:00 24.1 9 Este 13 Este 0 -- -- 59
2017-09-05 12:00:00 20.2 4 Sudeste 12 Este 0 -- -- 76
2017-09-05 11:00:00 17.3 2 Este 12 Nordeste 0 -- -- 86
2017-09-05 10:00:00 16.2 0 Calma 9 Oeste 0 -- -- 92
2017-09-05 09:00:00 12.9 3 Oeste 8 Sudoeste 0 -- -- 100
2017-09-05 08:00:00 11.3 2 Noroeste 4 Noroeste 0 -- -- 99
2017-09-05 07:00:00 10.9 0 Calma 3 Norte 0 -- -- 97
2017-09-05 06:00:00 11.9 2 Noroeste 6 Noroeste 0 -- -- 97
2017-09-05 05:00:00 12.3 5 Noroeste 10 Noroeste 0 -- -- 97
2017-09-05 04:00:00 12.5 0 Calma 9 Norte 0 -- -- 95
2017-09-05 03:00:00 13.5 0 Calma 6 Oeste 0 -- -- 92
2017-09-05 02:00:00 14 2 Norte 5 Norte 0 -- -- 92
2017-09-05 01:00:00 15.3 3 Oeste 8 Oeste 0 -- -- 90
2017-09-05 00:00:00 15.9 3 Oeste 6 Oeste 0 -- -- 88
2017-09-04 23:00:00 16.6 3 Oeste 10 Oeste 0 -- -- 84
2017-09-04 22:00:00 17.8 4 Sudoeste 8 Oeste 0 -- -- 79
2017-09-04 21:00:00 19.9 3 Sur 19 Sudeste 0 -- -- 71
2017-09-04 20:00:00 22.3 15 Sudeste 29 Sur 0 -- -- 61
2017-09-04 19:00:00 23.7 18 Sur 33 Sur 0 -- -- 56
2017-09-04 18:00:00 24.6 14 Sur 23 Sur 0 -- -- 50
2017-09-04 17:00:00 25 13 Sur 32 Sudeste 0 -- -- 46
2017-09-04 16:00:00 25.1 11 Sur 22 Sur 0 -- -- 46
2017-09-04 15:00:00 23.6 9 Sur 20 Sur 0 -- -- 51
2017-09-04 14:00:00 23.8 8 Este 17 Sudeste 0 -- -- 50
2017-09-04 13:00:00 23.2 7 Nordeste 15 Este 0 -- -- 54
2017-09-04 12:00:00 21.1 8 Sudeste 13 Sudeste 0 -- -- 64
2017-09-04 11:00:00 19.4 0 Calma 9 Oeste 0 -- -- 73
2017-09-04 10:00:00 17.6 5 Noroeste 9 Noroeste 0 -- -- 81
2017-09-04 09:00:00 14.7 5 Oeste 12 Sudoeste 0 -- -- 89
2017-09-04 08:00:00 13.7 5 Oeste 13 Noroeste 0 -- -- 91
2017-09-04 07:00:00 13.4 2 Oeste 10 Sudoeste 0 -- -- 93
2017-09-04 06:00:00 13.6 5 Oeste 10 Oeste 0 -- -- 93
2017-09-04 05:00:00 13.6 6 Noroeste 11 Oeste 0 -- -- 92
2017-09-04 04:00:00 13.9 0 Calma -- -- 0 -- -- 91
2017-09-04 03:00:00 14.6 0 Calma -- -- 0 -- -- 87
2017-09-04 02:00:00 15.8 0 Calma 6 Oeste 0 -- -- 84
2017-09-04 01:00:00 16.6 3 Oeste 9 Sudoeste 0 -- -- 79
2017-09-04 00:00:00 17.3 3 Oeste 6 Sudoeste 0 -- -- 76
2017-09-03 23:00:00 18.6 4 Norte 9 Noroeste 0 -- -- 71
2017-09-03 22:00:00 19.7 10 Sudeste 29 Sur 0 -- -- 63
2017-09-03 21:00:00 21.1 17 Sur 27 Sur 0 -- -- 58
2017-09-03 20:00:00 23.6 8 Sudoeste 31 Noroeste 0 -- -- 45
2017-09-03 19:00:00 25 4 Noroeste 15 Noroeste 0 -- -- 42
2017-09-03 18:00:00 25.9 8 Norte 30 Norte 0 -- -- 35
2017-09-03 17:00:00 27 15 Norte 25 Noroeste 0 -- -- 32
2017-09-03 16:00:00 26.2 4 Noroeste 25 Norte 0 -- -- 35
2017-09-03 15:00:00 26.5 10 Nordeste 18 Nordeste 0 -- -- 34
2017-09-03 14:00:00 25.5 6 Norte 17 Este 0 -- -- 35
2017-09-03 13:00:00 23.4 6 Este 13 Este 0 -- -- 35
2017-09-03 12:00:00 21.8 6 Este 10 Este 0 -- -- 43
2017-09-03 11:00:00 18.6 3 Nordeste 9 Sudeste 0 -- -- 53
2017-09-03 10:00:00 15.6 0 Calma 7 Sudeste 0 -- -- 67
2017-09-03 09:00:00 12.9 0 Calma 2 Sudoeste 0 -- -- 81
2017-09-03 08:00:00 12 0 Calma 5 Noroeste 0 -- -- 86
2017-09-03 07:00:00 12.3 0 Calma 9 Noroeste 0 -- -- 80
2017-09-03 06:00:00 12.2 3 Oeste 9 Oeste 0 -- -- 74
2017-09-03 05:00:00 11.9 2 Oeste 8 Noroeste 0 -- -- 77
2017-09-03 04:00:00 11.7 4 Noroeste 9 Noroeste 0 -- -- 78
2017-09-03 03:00:00 11.4 8 Noroeste 13 Noroeste 0 -- -- 78
2017-09-03 02:00:00 11.7 2 Nordeste 6 Noroeste 0 -- -- 76
2017-09-03 01:00:00 12.3 2 Nordeste 14 Oeste 0 -- -- 73
2017-09-03 00:00:00 12.9 8 Oeste 12 Oeste 0 -- -- 71
2017-09-02 23:00:00 14.6 4 Oeste 10 Oeste 0 -- -- 64
2017-09-02 22:00:00 16.5 4 Oeste 14 Sudoeste 0 -- -- 59
2017-09-02 21:00:00 17.7 10 Sudoeste 15 Sudoeste 0 -- -- 51
2017-09-02 20:00:00 19.8 6 Sur 12 Sur 0 -- -- 44
2017-09-02 19:00:00 21.6 6 Sur 17 Sur 0 -- -- 34
2017-09-02 18:00:00 22.4 9 Sudeste 23 Sur 0 -- -- 32
2017-09-02 17:00:00 22.5 9 Sur 20 Sudeste 0 -- -- 35
2017-09-02 16:00:00 21.3 13 Sur 21 Sur 0 -- -- 34
2017-09-02 15:00:00 20.7 11 Sudoeste 22 Sur 0 -- -- 37
2017-09-02 14:00:00 19.6 9 Sudoeste 19 Sur 0 -- -- 40
2017-09-02 13:00:00 17.9 7 Sudeste 17 Sur 0 -- -- 45
2017-09-02 12:00:00 16.2 10 Sudeste 20 Sudeste 0 -- -- 57
2017-09-02 11:00:00 14.3 5 Sudeste 12 Sudeste 0 -- -- 66
2017-09-02 10:00:00 13 0 Calma 10 Sudoeste 0 -- -- 78
2017-09-02 09:00:00 9.6 3 Oeste 10 Oeste 0 -- -- 95
2017-09-02 08:00:00 7.6 5 Oeste 11 Noroeste 0 -- -- 97
2017-09-02 07:00:00 8.2 6 Oeste 13 Oeste 0 -- -- 97
2017-09-02 06:00:00 8.6 0 Calma 3 Oeste 0 -- -- 95
2017-09-02 05:00:00 9.8 0 Calma 5 Norte 0 -- -- 93
2017-09-02 04:00:00 11.2 0 Calma 5 Noroeste 0 -- -- 92
2017-09-02 03:00:00 11.4 3 Sur 8 Sudoeste 0 -- -- 85
2017-09-02 02:00:00 11.9 3 Sudeste 12 Este 0 -- -- 88
2017-09-02 01:00:00 12.7 7 Sudeste 10 Sudeste 0 -- -- 86
2017-09-02 00:00:00 12.1 2 Sur 6 Sur 0 -- -- 86
2017-09-01 23:00:00 12.5 4 Este 12 Este 0 -- -- 81
2017-09-01 22:00:00 13 8 Este 16 Este 0 -- -- 77
2017-09-01 21:00:00 14.3 9 Este 26 Este 0 -- -- 71
2017-09-01 20:00:00 16.1 15 Este 24 Sudeste 0 -- -- 62
2017-09-01 19:00:00 17.3 17 Este 30 Sudeste 0 -- -- 56
2017-09-01 18:00:00 18.3 19 Este 35 Sudeste 0 -- -- 52
2017-09-01 17:00:00 19.2 21 Este 34 Este 0 -- -- 52
2017-09-01 16:00:00 19.2 13 Sudeste 21 Sudeste 0 -- -- 47
2017-09-01 15:00:00 18.8 11 Sudeste 24 Sudeste 0 -- -- 47
2017-09-01 14:00:00 18.3 10 Sudeste 19 Sudeste 0.2 -- -- 49
2017-09-01 13:00:00 17.5 5 Nordeste 23 Este 0 -- -- 62
2017-09-01 12:00:00 16 8 Sudeste 17 Nordeste 0 -- -- 69
2017-09-01 11:00:00 14.5 2 Oeste 10 Sur 0 -- -- 80
2017-09-01 10:00:00 13.1 2 Sudoeste 10 Noroeste 0 -- -- 87
2017-09-01 09:00:00 10.1 5 Noroeste 6 Noroeste 0 -- -- 97
2017-09-01 08:00:00 8.4 3 Noroeste 6 Noroeste 0 -- -- 100
2017-09-01 07:00:00 8.5 0 Calma 5 Noroeste 0 -- -- 97
2017-09-01 06:00:00 9.4 0 Calma 3 Oeste 0 -- -- 94
2017-09-01 05:00:00 10.9 3 Noroeste 9 Oeste 0 -- -- 93
2017-09-01 04:00:00 11.8 8 Sudoeste 12 Sudoeste 0 -- -- 90
2017-09-01 03:00:00 11.9 0 Calma 13 Sudoeste 0 -- -- 90
2017-09-01 02:00:00 11.6 10 Sudoeste 16 Sudoeste 0 -- -- 92
2017-09-01 01:00:00 11.1 8 Sudoeste 15 Sudoeste 0 -- -- 91
2017-09-01 00:00:00 11.4 8 Sudoeste 16 Sur 0 -- -- 91
2017-08-31 23:00:00 12.6 10 Sur 17 Sudoeste 0 -- -- 85
2017-08-31 22:00:00 13.1 9 Sur 17 Sur 0 -- -- 83
2017-08-31 21:00:00 14.4 13 Sur 27 Sur 0 -- -- 78
2017-08-31 20:00:00 16.4 17 Sur 28 Sur 0 -- -- 69
2017-08-31 19:00:00 18.2 15 Sudeste 27 Sudeste 0 -- -- 60
2017-08-31 18:00:00 18.9 13 Sudeste 25 Sudeste 0 -- -- 59
2017-08-31 17:00:00 19.9 13 Sudeste 24 Sur 0 -- -- 55
2017-08-31 16:00:00 18.9 10 Sudeste 26 Sudeste 0 -- -- 58
2017-08-31 15:00:00 18.4 9 Sudeste 26 Sur 0 -- -- 61
2017-08-31 14:00:00 17.9 13 Sudeste 23 Sudeste 0 -- -- 64
2017-08-31 13:00:00 17.2 10 Sur 17 Sur 0 -- -- 63
2017-08-31 12:00:00 15.4 7 Sur 14 Sur 0 -- -- 75
2017-08-31 11:00:00 13.2 8 Sudeste 12 Sudeste 0 -- -- 87
2017-08-31 10:00:00 12.9 5 Sudeste 17 Sur 0 -- -- 87
2017-08-31 09:00:00 12.3 5 Sudoeste 9 Sudoeste 0 -- -- 92
2017-08-31 08:00:00 12.2 0 Calma 6 Sudoeste 0 -- -- 92
2017-08-31 07:00:00 12.2 4 Sudeste 9 Sudeste 0 -- -- 94
2017-08-31 06:00:00 12.3 5 Sudeste 9 Sudoeste 0 -- -- 93
2017-08-31 05:00:00 12.4 7 Sur 15 Sudeste 0 -- -- 92
2017-08-31 04:00:00 12.6 8 Sudeste 17 Sudeste 0 -- -- 92
2017-08-31 03:00:00 12.7 12 Sur 18 Sur 0 -- -- 93
2017-08-31 02:00:00 12.8 15 Sudeste 21 Sudeste 0.4 -- -- 92
2017-08-31 01:00:00 13.7 4 Este 12 Este 0.2 -- -- 93
2017-08-31 00:00:00 14.1 6 Sudeste 14 Este 0.6 -- -- 95
2017-08-30 23:00:00 15.1 4 Sudeste 9 Sudeste 1.2 -- -- 94
2017-08-30 22:00:00 15.3 0 Calma 9 Sur 1 -- -- 93
2017-08-30 21:00:00 15.3 6 Este 28 Nordeste 1.6 -- -- 92
2017-08-30 20:00:00 18.5 17 Nordeste 31 Este 0 -- -- 76
2017-08-30 19:00:00 20.3 18 Este 34 Este 0 -- -- 69
2017-08-30 18:00:00 24 13 Norte 33 Noroeste 0 -- -- 45
2017-08-30 17:00:00 25.6 19 Noroeste 38 Norte 0 -- -- 38
2017-08-30 16:00:00 25.3 19 Norte 39 Noroeste 0 -- -- 40
2017-08-30 15:00:00 26 20 Noroeste 38 Noroeste 0 -- -- 39
2017-08-30 14:00:00 24.2 21 Noroeste 35 Noroeste 0 -- -- 48
2017-08-30 13:00:00 23.8 19 Noroeste 32 Noroeste 0 -- -- 52
2017-08-30 12:00:00 21.9 9 Noroeste 23 Noroeste 0 -- -- 62
2017-08-30 11:00:00 18.4 6 Este 10 Este 0 -- -- 87
2017-08-30 10:00:00 16.9 4 Sudoeste 14 Sudoeste 0 -- -- 90
2017-08-30 09:00:00 14.2 4 Oeste 16 Oeste 0 -- -- 97
2017-08-30 08:00:00 13.2 4 Oeste 11 Oeste 0 -- -- 98
2017-08-30 07:00:00 13.1 6 Oeste 14 Oeste 0 -- -- 98
2017-08-30 06:00:00 13.8 8 Oeste 13 Sudoeste 0 -- -- 98
2017-08-30 05:00:00 13.7 3 Noroeste 10 Noroeste 0 -- -- 98
2017-08-30 04:00:00 14.1 4 Noroeste 8 Norte 0 -- -- 97
2017-08-30 03:00:00 14.8 2 Noroeste 7 Sur 0 -- -- 96
2017-08-30 02:00:00 15 5 Oeste 13 Oeste 0 -- -- 95
2017-08-30 01:00:00 15.3 7 Oeste 12 Sudoeste 0 -- -- 95
2017-08-30 00:00:00 15.3 4 Noroeste 6 Sudoeste 0 -- -- 94
2017-08-29 23:00:00 15.9 0 Calma 6 Sudeste 0.2 -- -- 93
2017-08-29 22:00:00 16.6 0 Calma 21 Sudoeste 0.6 -- -- 91
2017-08-29 21:00:00 17.3 10 Oeste 26 Sudoeste 0.8 -- -- 84
2017-08-29 20:00:00 19.9 14 Sudoeste 26 Sudoeste 0 -- -- 75
2017-08-29 19:00:00 22.6 15 Sudoeste 24 Sur 0 -- -- 61
2017-08-29 18:00:00 23.6 15 Sur 28 Sur 0 -- -- 58
2017-08-29 17:00:00 23.5 14 Sur 26 Sur 0 -- -- 56
2017-08-29 16:00:00 24.1 5 Este 14 Sudeste 0 -- -- 54
2017-08-29 15:00:00 22.8 6 Sudeste 15 Este 0 -- -- 57
2017-08-29 14:00:00 20.6 8 Este 18 Este 0 -- -- 74
2017-08-29 13:00:00 18.9 5 Este 10 Este 0 -- -- 83
2017-08-29 12:00:00 16.7 3 Sur 12 Sur 0 -- -- 89
2017-08-29 11:00:00 15.4 8 Sur 15 Sur 0 -- -- 93
2017-08-29 10:00:00 14.9 4 Norte 6 Norte 0 -- -- 95
2017-08-29 09:00:00 14.7 2 Oeste 8 Norte 0 -- -- 96
2017-08-29 08:00:00 14.3 0 Calma 4 Nordeste 0 -- -- 99
2017-08-29 07:00:00 14.2 0 Calma 5 Noroeste 0 -- -- 100
2017-08-29 06:00:00 14.1 4 Norte 10 Sudoeste 0 -- -- 100
2017-08-29 05:00:00 14.1 4 Sur 8 Sudoeste 0 -- -- 100
2017-08-29 04:00:00 14 0 Calma 5 Sudoeste 0 -- -- 98
2017-08-29 03:00:00 14.8 3 Sudoeste 13 Sur 0 -- -- 98
2017-08-29 02:00:00 15.3 4 Sudoeste 11 Norte 0 -- -- 97
2017-08-29 01:00:00 15.3 5 Oeste 19 Sudeste 0 -- -- 97
2017-08-29 00:00:00 15.5 14 Sudeste 20 Sudeste 1.4 -- -- 98
2017-08-28 23:00:00 15.7 0 Calma 8 Sudeste 0.8 -- -- 95
2017-08-28 22:00:00 15.8 3 Oeste 9 Noroeste 0.4 -- -- 97
2017-08-28 21:00:00 16 0 Calma 16 Noroeste 0.6 -- -- 96
2017-08-28 20:00:00 16.5 5 Noroeste 10 Noroeste 0 -- -- 94
2017-08-28 19:00:00 16.6 0 Calma 13 Oeste 3.4 -- -- 95
2017-08-28 18:00:00 16.5 11 Noroeste 26 Sudoeste 5 -- -- 93
2017-08-28 17:00:00 17.2 14 Sudoeste 27 Noroeste 1.2 -- -- 89
2017-08-28 16:00:00 18.2 10 Noroeste 20 Oeste 0 -- -- 91
2017-08-28 15:00:00 18.4 3 Sur 18 Noroeste 0.6 -- -- 92
2017-08-28 14:00:00 17.9 10 Sur 30 Oeste 3.6 -- -- 92
2017-08-28 13:00:00 18.6 3 Norte 30 Sur 0.2 -- -- 91
2017-08-28 12:00:00 18 18 Sudoeste 30 Sur 0 -- -- 91
2017-08-28 11:00:00 17.9 11 Sudoeste 23 Sudeste 0.4 -- -- 96
2017-08-28 10:00:00 16.6 0 Calma 18 Noroeste 0.4 -- -- 97
2017-08-28 09:00:00 16.6 3 Sur 17 Sudoeste 0 -- -- 96
2017-08-28 08:00:00 16.4 6 Sudoeste 19 Sudoeste 0 -- -- 97
2017-08-28 07:00:00 16.7 5 Sudoeste 36 Noroeste 0.2 -- -- 92
2017-08-28 06:00:00 17.1 10 Sur 24 Noroeste 1.2 -- -- 93
2017-08-28 05:00:00 17.1 0 Calma 10 Sur 0 -- -- 96
2017-08-28 04:00:00 17 0 Calma 12 Sur 0 -- -- 97
2017-08-28 03:00:00 17 4 Sudoeste 15 Sudoeste 0 -- -- 97
2017-08-28 02:00:00 17.2 7 Sudoeste 15 Sudoeste 0 -- -- 97
2017-08-28 01:00:00 17.1 4 Oeste 19 Sudoeste 0 -- -- 98
2017-08-28 00:00:00 17.2 18 Sudoeste 32 Sudoeste 0 -- -- 97
2017-08-27 23:00:00 17.5 15 Sudoeste 31 Sudoeste 0.6 -- -- 94
2017-08-27 22:00:00 18 10 Oeste 40 Sudoeste 0.2 -- -- 94
2017-08-27 21:00:00 17.9 21 Sur 35 Sur 0 -- -- 91
2017-08-27 20:00:00 18.7 22 Sur 37 Sur 0 -- -- 78
2017-08-27 19:00:00 20.5 11 Sudoeste 28 Sudoeste 0 -- -- 75
2017-08-27 18:00:00 19.1 11 Sur 35 Sudoeste 0 -- -- 83
2017-08-27 17:00:00 18.9 18 Sur 34 Sudoeste 0 -- -- 83
2017-08-27 16:00:00 17.8 18 Sur 27 Sur 1.8 -- -- 89
2017-08-27 15:00:00 17.7 4 Este 23 Norte 3.4 -- -- 87
2017-08-27 14:00:00 21.2 4 Nordeste 16 Nordeste 0 -- -- 67
2017-08-27 13:00:00 21.9 8 Norte 21 Nordeste 0.2 -- -- 65
2017-08-27 12:00:00 23.3 4 Este 14 Norte 0 -- -- 53
2017-08-27 11:00:00 21.1 6 Noroeste 21 Norte 0 -- -- 63
2017-08-27 10:00:00 19.8 13 Noroeste 35 Norte 0 -- -- 70
2017-08-27 09:00:00 18.4 0 Calma 12 Este 0.4 -- -- 85
2017-08-27 08:00:00 19.1 4 Noroeste 17 Oeste 0 -- -- 74
2017-08-27 07:00:00 19.9 6 Noroeste 22 Sur 0 -- -- 69
2017-08-27 06:00:00 19.1 2 Noroeste 18 Noroeste 0 -- -- 67
2017-08-27 05:00:00 21 7 Sudoeste 22 Sudoeste 0 -- -- 62
2017-08-27 04:00:00 19.5 2 Noroeste 21 Sudoeste 0 -- -- 62
2017-08-27 03:00:00 21.2 15 Sudoeste 23 Sudoeste 0 -- -- 58
2017-08-27 02:00:00 22.8 16 Sudoeste 30 Sur 0 -- -- 53
2017-08-27 01:00:00 24.1 11 Sudoeste 18 Sudoeste 0 -- -- 35
2017-08-27 00:00:00 22.7 4 Este 12 Sudoeste 0 -- -- 39
2017-08-26 23:00:00 23.4 7 Oeste 13 Sudoeste 0 -- -- 37
2017-08-26 22:00:00 25.2 8 Oeste 22 Noroeste 0 -- -- 34
2017-08-26 21:00:00 26.9 12 Oeste 24 Oeste 0 -- -- 28
2017-08-26 20:00:00 28.5 17 Noroeste 35 Noroeste 0 -- -- 25
2017-08-26 19:00:00 30.6 13 Noroeste 32 Norte 0 -- -- 21
2017-08-26 18:00:00 30.6 18 Noroeste 36 Noroeste 0 -- -- 21
2017-08-26 17:00:00 30.9 15 Noroeste 33 Noroeste 0 -- -- 19
2017-08-26 16:00:00 29.8 19 Norte 40 Norte 0 -- -- 19
2017-08-26 15:00:00 29.6 26 Noroeste 44 Noroeste 0 -- -- 17
2017-08-26 14:00:00 30.5 17 Noroeste 33 Norte 0 -- -- 18
2017-08-26 13:00:00 26.1 5 Este 14 Sudeste 0 -- -- 47
2017-08-26 12:00:00 22.9 4 Sudeste 9 Este 0 -- -- 65
2017-08-26 11:00:00 18.9 3 Nordeste 6 Norte 0 -- -- 79
2017-08-26 10:00:00 15.1 3 Noroeste 8 Noroeste 0 -- -- 95
2017-08-26 09:00:00 14.2 5 Noroeste 10 Noroeste 0 -- -- 99
2017-08-26 08:00:00 14.2 5 Noroeste 8 Oeste 0 -- -- 98
2017-08-26 07:00:00 14.1 3 Oeste 9 Oeste 0 -- -- 93
2017-08-26 06:00:00 13.3 0 Calma 8 Norte 0 -- -- 93
2017-08-26 05:00:00 12.8 3 Noroeste 7 Noroeste 0 -- -- 93
2017-08-26 04:00:00 13.9 2 Norte 7 Oeste 0 -- -- 89
2017-08-26 03:00:00 15.2 2 Oeste 6 Sudoeste 0 -- -- 89
2017-08-26 02:00:00 16.7 0 Calma 15 Sur 0 -- -- 83
2017-08-26 01:00:00 18.5 10 Sudoeste 18 Sudoeste 0 -- -- 78
2017-08-26 00:00:00 18.7 4 Sudoeste 11 Sudeste 0 -- -- 71
2017-08-25 23:00:00 20.6 6 Nordeste 16 Sudoeste 0 -- -- 59
2017-08-25 22:00:00 22.5 5 Sudeste 26 Sur 0 -- -- 50
2017-08-25 21:00:00 26 10 Sur 18 Sur 0 -- -- 31
2017-08-25 20:00:00 29.6 6 Norte 17 Norte 0 -- -- 18
2017-08-25 19:00:00 31.9 12 Norte 33 Noroeste 0 -- -- 15
2017-08-25 18:00:00 32.5 21 Norte 37 Noroeste 0 -- -- 15
2017-08-25 17:00:00 32.7 21 Noroeste 53 Noroeste 0 -- -- 15
2017-08-25 16:00:00 32.2 20 Noroeste 41 Noroeste 0 -- -- 17
2017-08-25 15:00:00 31.3 24 Noroeste 46 Noroeste 0 -- -- 18
2017-08-25 14:00:00 30.4 26 Noroeste 40 Noroeste 0 -- -- 17
2017-08-25 13:00:00 27.4 9 Sudoeste 18 Sudoeste 0 -- -- 40
2017-08-25 12:00:00 24.3 5 Sur 13 Sur 0 -- -- 56
2017-08-25 11:00:00 21.6 7 Sur 15 Sur 0 -- -- 68
2017-08-25 10:00:00 19.1 4 Oeste 13 Sudoeste 0 -- -- 81
2017-08-25 09:00:00 17.7 6 Sudoeste 13 Oeste 0 -- -- 86
2017-08-25 08:00:00 17.5 6 Sudoeste 12 Sur 0 -- -- 87
2017-08-25 07:00:00 17.5 5 Sur 12 Sudoeste 0 -- -- 87
2017-08-25 06:00:00 17.8 6 Sudoeste 12 Sudoeste 0 -- -- 86
2017-08-25 05:00:00 18 5 Sur 10 Sur 0 -- -- 87
2017-08-25 04:00:00 18.1 7 Sur 13 Sur 0 -- -- 87
2017-08-25 03:00:00 18.2 9 Sur 15 Sudoeste 0 -- -- 87
2017-08-25 02:00:00 18.2 9 Sur 14 Sur 0 -- -- 86
2017-08-25 01:00:00 18.2 8 Sur 17 Sur 0 -- -- 87
2017-08-25 00:00:00 17.3 9 Sudoeste 17 Sur 0 -- -- 89
2017-08-24 23:00:00 18.1 4 Sudeste 15 Sur 0 -- -- 85
2017-08-24 22:00:00 19.1 12 Sudeste 22 Sur 0 -- -- 82
2017-08-24 21:00:00 21.7 13 Sur 25 Sudeste 0 -- -- 70
2017-08-24 20:00:00 25.6 21 Sudeste 32 Sudeste 0 -- -- 58
2017-08-24 19:00:00 31.2 18 Sur 28 Sudoeste 0 -- -- 38
2017-08-24 18:00:00 31.1 16 Sudoeste 32 Sur 0 -- -- 36
2017-08-24 17:00:00 32.2 14 Sur 31 Sur 0 -- -- 34
2017-08-24 16:00:00 31.3 17 Sur 32 Sudoeste 0 -- -- 35
2017-08-24 15:00:00 29.9 20 Sur 34 Sur 0 -- -- 40
2017-08-24 14:00:00 28 18 Sur 28 Sur 0 -- -- 47
2017-08-24 13:00:00 26.1 13 Sudoeste 27 Sur 0 -- -- 51
2017-08-24 12:00:00 23.9 13 Sur 26 Sur 0 -- -- 57
2017-08-24 11:00:00 21.3 12 Sudoeste 24 Sudoeste 0 -- -- 66
2017-08-24 10:00:00 19.2 10 Sur 18 Sur 0 -- -- 77
2017-08-24 09:00:00 15.8 0 Calma 6 Norte 0 -- -- 93
2017-08-24 08:00:00 13.5 3 Noroeste 10 Noroeste 0 -- -- 96
2017-08-24 07:00:00 14.3 0 Calma 12 Sudoeste 0 -- -- 94
2017-08-24 06:00:00 15.1 5 Oeste 12 Sudoeste 0 -- -- 94
2017-08-24 05:00:00 15.8 9 Sudoeste 13 Sudoeste 0 -- -- 93
2017-08-24 04:00:00 16.6 9 Sudoeste 13 Sudoeste 0 -- -- 90
2017-08-24 03:00:00 17.4 4 Sur 16 Sur 0 -- -- 86
2017-08-24 02:00:00 18.6 11 Sur 18 Sur 0 -- -- 82
2017-08-24 01:00:00 19.4 0 Calma 9 Noroeste 0 -- -- 75
2017-08-24 00:00:00 20.7 3 Noroeste 22 Sur 0 -- -- 72
2017-08-23 23:00:00 20.9 7 Sur 17 Sur 0 -- -- 72
2017-08-23 22:00:00 22.8 14 Sur 27 Sur 0 -- -- 67
2017-08-23 21:00:00 25.9 21 Sudeste 35 Sur 0 -- -- 55
2017-08-23 20:00:00 27.9 16 Sur 31 Sur 0 -- -- 47
2017-08-23 19:00:00 28.7 19 Sur 30 Sur 0 -- -- 41
2017-08-23 18:00:00 29.7 15 Sur 28 Sudoeste 0 -- -- 34
2017-08-23 17:00:00 29.5 13 Sur 23 Sur 0 -- -- 34
2017-08-23 16:00:00 28.7 14 Sur 28 Sur 0 -- -- 38
2017-08-23 15:00:00 27.6 12 Sur 22 Sur 0 -- -- 35
2017-08-23 14:00:00 27 10 Sur 19 Sudeste 0 -- -- 36
2017-08-23 13:00:00 25.6 13 Este 18 Este 0 -- -- 41
2017-08-23 12:00:00 23.7 7 Sudeste 15 Sudeste 0 -- -- 50
2017-08-23 11:00:00 23 8 Sur 15 Sur 0 -- -- 49
2017-08-23 10:00:00 20.8 6 Sudoeste 14 Sudoeste 0 -- -- 59
2017-08-23 09:00:00 15.6 0 Calma 4 Noroeste 0 -- -- 82
2017-08-23 08:00:00 12.3 0 Calma 3 Noroeste 0 -- -- 89
2017-08-23 07:00:00 12.9 0 Calma 4 Este 0 -- -- 88
2017-08-23 06:00:00 14.2 3 Norte 7 Nordeste 0 -- -- 84
2017-08-23 05:00:00 15.7 3 Norte 12 Sudoeste 0 -- -- 80
2017-08-23 04:00:00 16.3 5 Sudoeste 23 Sur 0 -- -- 78
2017-08-23 03:00:00 17.4 17 Sudoeste 25 Sudoeste 0 -- -- 75
2017-08-23 02:00:00 18.6 15 Sudoeste 24 Sudoeste 0 -- -- 67
2017-08-23 01:00:00 18.6 0 Calma 10 Sudoeste 0 -- -- 64
2017-08-23 00:00:00 20.1 3 Noroeste 19 Sudoeste 0 -- -- 60
2017-08-22 23:00:00 21.7 14 Sur 22 Sur 0 -- -- 54
2017-08-22 22:00:00 23.2 14 Sur 17 Sudoeste 0 -- -- 45
2017-08-22 21:00:00 25.4 10 Sur 28 Sur 0 -- -- 42
2017-08-22 20:00:00 28 21 Sudeste 33 Sudeste 0 -- -- 37
2017-08-22 19:00:00 30.7 20 Sudeste 30 Sudeste 0 -- -- 37
2017-08-22 18:00:00 30.8 30 Sudeste 40 Sudeste 0 -- -- 40
2017-08-22 17:00:00 33.2 15 Sur 23 Sur 0 -- -- 32
2017-08-22 16:00:00 33.3 16 Sur 27 Sudeste 0 -- -- 32
2017-08-22 15:00:00 33.9 10 Sudoeste 23 Sudeste 0 -- -- 31
2017-08-22 14:00:00 31.7 9 Sudeste 20 Sudeste 0 -- -- 37
2017-08-22 13:00:00 29.6 7 Este 17 Sudeste 0 -- -- 42
2017-08-22 12:00:00 27.2 5 Este 13 Sudoeste 0 -- -- 48
2017-08-22 11:00:00 24.7 6 Sur 13 Sur 0 -- -- 55
2017-08-22 10:00:00 22.7 5 Sudoeste 13 Sudoeste 0 -- -- 63
2017-08-22 09:00:00 18 3 Noroeste 9 Sudoeste 0 -- -- 59
2017-08-22 08:00:00 15.2 3 Oeste 8 Noroeste 0 -- -- 66
2017-08-22 07:00:00 15.5 5 Oeste 10 Noroeste 0 -- -- 64
2017-08-22 06:00:00 17.4 4 Noroeste 10 Noroeste 0 -- -- 62
2017-08-22 05:00:00 18.8 6 Norte 14 Noroeste 0 -- -- 58
2017-08-22 04:00:00 20.6 4 Oeste 15 Noroeste 0 -- -- 47
2017-08-22 03:00:00 22.2 7 Sur 18 Sudoeste 0 -- -- 41
2017-08-22 02:00:00 21.5 7 Norte 13 Sur 0 -- -- 41
2017-08-22 01:00:00 21.8 4 Oeste 17 Sur 0 -- -- 39
2017-08-22 00:00:00 23.2 10 Noroeste 15 Noroeste 0 -- -- 36